sensor_id;sensor_type;location;lat;lon;timestamp;temperature;humidity
41882;DHT22;27562;47.524;12.404;2024-01-15T00:02:13;-6.20;99.90
41882;DHT22;27562;47.524;12.404;2024-01-15T00:04:39;-6.20;99.90
41882;DHT22;27562;47.524;12.404;2024-01-15T00:07:06;-6.20;99.90
41882;DHT22;27562;47.524;12.404;2024-01-15T00:09:32;-6.20;99.90
41882;DHT22;27562;47.524;12.404;2024-01-15T00:11:59;-6.20;99.90
41882;DHT22;27562;47.524;12.404;2024-01-15T00:14:25;-6.20;99.90
41882;DHT22;27562;47.524;12.404;2024-01-15T00:16:51;-6.20;99.90
41882;DHT22;27562;47.524;12.404;2024-01-15T00:19:17;-6.20;99.90
41882;DHT22;27562;47.524;12.404;2024-01-15T00:21:44;-6.20;99.90
41882;DHT22;27562;47.524;12.404;2024-01-15T00:24:10;-6.20;99.90
41882;DHT22;27562;47.524;12.404;2024-01-15T00:26:35;-6.20;99.90
41882;DHT22;27562;47.524;12.404;2024-01-15T00:29:01;-6.20;99.90
41882;DHT22;27562;47.524;12.404;2024-01-15T00:31:28;-6.20;99.90
41882;DHT22;27562;47.524;12.404;2024-01-15T00:33:55;-6.20;99.90
41882;DHT22;27562;47.524;12.404;2024-01-15T00:36:21;-6.20;99.90
41882;DHT22;27562;47.524;12.404;2024-01-15T00:38:47;-6.20;99.90
41882;DHT22;27562;47.524;12.404;2024-01-15T00:41:13;-6.10;99.90
41882;DHT22;27562;47.524;12.404;2024-01-15T00:43:39;-6.10;99.90
41882;DHT22;27562;47.524;12.404;2024-01-15T00:46:05;-6.10;99.90
41882;DHT22;27562;47.524;12.404;2024-01-15T00:48:31;-6.10;99.90
41882;DHT22;27562;47.524;12.404;2024-01-15T00:50:57;-6.10;99.90
41882;DHT22;27562;47.524;12.404;2024-01-15T00:53:23;-6.10;99.90
41882;DHT22;27562;47.524;12.404;2024-01-15T00:55:49;-6.10;99.90
41882;DHT22;27562;47.524;12.404;2024-01-15T00:58:15;-6.10;99.90
41882;DHT22;27562;47.524;12.404;2024-01-15T01:00:41;-6.10;99.90
41882;DHT22;27562;47.524;12.404;2024-01-15T01:03:07;-6.00;99.90
41882;DHT22;27562;47.524;12.404;2024-01-15T01:05:34;-6.10;99.90
41882;DHT22;27562;47.524;12.404;2024-01-15T01:08:00;-6.10;99.90
41882;DHT22;27562;47.524;12.404;2024-01-15T01:10:26;-6.00;99.90
41882;DHT22;27562;47.524;12.404;2024-01-15T01:12:52;-6.10;99.90
41882;DHT22;27562;47.524;12.404;2024-01-15T01:15:18;-6.10;99.90
41882;DHT22;27562;47.524;12.404;2024-01-15T01:17:44;-6.10;99.90
41882;DHT22;27562;47.524;12.404;2024-01-15T01:20:09;-6.10;99.90
41882;DHT22;27562;47.524;12.404;2024-01-15T01:22:36;-6.10;99.90
41882;DHT22;27562;47.524;12.404;2024-01-15T01:25:02;-6.10;99.90
41882;DHT22;27562;47.524;12.404;2024-01-15T01:27:28;-6.10;99.90
41882;DHT22;27562;47.524;12.404;2024-01-15T01:29:53;-6.10;99.90
41882;DHT22;27562;47.524;12.404;2024-01-15T01:32:19;-6.10;99.90
41882;DHT22;27562;47.524;12.404;2024-01-15T01:34:45;-6.00;99.90
41882;DHT22;27562;47.524;12.404;2024-01-15T01:37:11;-6.10;99.90
41882;DHT22;27562;47.524;12.404;2024-01-15T01:39:41;-6.10;99.90
41882;DHT22;27562;47.524;12.404;2024-01-15T01:42:07;-6.10;99.90
41882;DHT22;27562;47.524;12.404;2024-01-15T01:44:33;-6.10;99.90
41882;DHT22;27562;47.524;12.404;2024-01-15T01:46:59;-6.00;99.90
41882;DHT22;27562;47.524;12.404;2024-01-15T01:49:26;-6.00;99.90
41882;DHT22;27562;47.524;12.404;2024-01-15T01:51:53;-6.00;99.90
41882;DHT22;27562;47.524;12.404;2024-01-15T01:54:20;-6.00;99.90
41882;DHT22;27562;47.524;12.404;2024-01-15T01:56:47;-5.90;99.90
41882;DHT22;27562;47.524;12.404;2024-01-15T01:59:14;-6.00;99.90
41882;DHT22;27562;47.524;12.404;2024-01-15T02:01:40;-6.00;99.90
41882;DHT22;27562;47.524;12.404;2024-01-15T02:04:07;-6.00;99.90
41882;DHT22;27562;47.524;12.404;2024-01-15T02:06:34;-6.00;99.90
41882;DHT22;27562;47.524;12.404;2024-01-15T02:08:59;-6.00;99.90
41882;DHT22;27562;47.524;12.404;2024-01-15T02:11:26;-5.90;99.90
41882;DHT22;27562;47.524;12.404;2024-01-15T02:13:52;-5.90;99.90
41882;DHT22;27562;47.524;12.404;2024-01-15T02:16:17;-5.90;99.90
41882;DHT22;27562;47.524;12.404;2024-01-15T02:18:44;-5.90;99.90
41882;DHT22;27562;47.524;12.404;2024-01-15T02:21:10;-5.90;99.90
41882;DHT22;27562;47.524;12.404;2024-01-15T02:23:37;-5.90;99.90
41882;DHT22;27562;47.524;12.404;2024-01-15T02:26:04;-5.90;99.90
41882;DHT22;27562;47.524;12.404;2024-01-15T02:28:30;-5.90;99.90
41882;DHT22;27562;47.524;12.404;2024-01-15T02:30:57;-5.90;99.90
41882;DHT22;27562;47.524;12.404;2024-01-15T02:33:23;-5.90;99.90
41882;DHT22;27562;47.524;12.404;2024-01-15T02:35:49;-5.90;99.90
41882;DHT22;27562;47.524;12.404;2024-01-15T02:38:17;-5.90;99.90
41882;DHT22;27562;47.524;12.404;2024-01-15T02:40:44;-5.80;99.90
41882;DHT22;27562;47.524;12.404;2024-01-15T02:43:10;-5.80;99.90
41882;DHT22;27562;47.524;12.404;2024-01-15T02:45:36;-5.80;99.90
41882;DHT22;27562;47.524;12.404;2024-01-15T02:48:02;-5.80;99.90
41882;DHT22;27562;47.524;12.404;2024-01-15T02:50:28;-5.80;99.90
41882;DHT22;27562;47.524;12.404;2024-01-15T02:52:53;-5.80;99.90
41882;DHT22;27562;47.524;12.404;2024-01-15T02:55:19;-5.80;99.90
41882;DHT22;27562;47.524;12.404;2024-01-15T02:57:45;-5.80;99.90
41882;DHT22;27562;47.524;12.404;2024-01-15T03:00:11;-5.80;99.90
41882;DHT22;27562;47.524;12.404;2024-01-15T03:02:40;-5.70;99.90
41882;DHT22;27562;47.524;12.404;2024-01-15T03:05:06;-5.70;99.90
41882;DHT22;27562;47.524;12.404;2024-01-15T03:07:33;-5.70;99.90
41882;DHT22;27562;47.524;12.404;2024-01-15T03:09:59;-5.80;99.90
41882;DHT22;27562;47.524;12.404;2024-01-15T03:12:26;-5.80;99.90
41882;DHT22;27562;47.524;12.404;2024-01-15T03:14:51;-5.80;99.90
41882;DHT22;27562;47.524;12.404;2024-01-15T03:17:17;-5.80;99.90
41882;DHT22;27562;47.524;12.404;2024-01-15T03:19:43;-5.80;99.90
41882;DHT22;27562;47.524;12.404;2024-01-15T03:22:08;-5.80;99.90
41882;DHT22;27562;47.524;12.404;2024-01-15T03:24:35;-5.80;99.90
41882;DHT22;27562;47.524;12.404;2024-01-15T03:27:01;-5.70;99.90
41882;DHT22;27562;47.524;12.404;2024-01-15T03:29:27;-5.70;99.90
41882;DHT22;27562;47.524;12.404;2024-01-15T03:31:53;-5.70;99.90
41882;DHT22;27562;47.524;12.404;2024-01-15T03:34:18;-5.70;99.90
41882;DHT22;27562;47.524;12.404;2024-01-15T03:36:44;-5.70;99.90
41882;DHT22;27562;47.524;12.404;2024-01-15T03:39:10;-5.70;99.90
41882;DHT22;27562;47.524;12.404;2024-01-15T03:41:36;-5.70;99.90
41882;DHT22;27562;47.524;12.404;2024-01-15T03:44:01;-5.70;99.90
41882;DHT22;27562;47.524;12.404;2024-01-15T03:46:27;-5.70;99.90
41882;DHT22;27562;47.524;12.404;2024-01-15T03:48:53;-5.60;99.90
41882;DHT22;27562;47.524;12.404;2024-01-15T03:51:19;-5.60;99.90
41882;DHT22;27562;47.524;12.404;2024-01-15T03:53:46;-5.60;99.90
41882;DHT22;27562;47.524;12.404;2024-01-15T03:56:12;-5.60;99.90
41882;DHT22;27562;47.524;12.404;2024-01-15T03:58:37;-5.60;99.90
41882;DHT22;27562;47.524;12.404;2024-01-15T04:01:03;-5.60;99.90
41882;DHT22;27562;47.524;12.404;2024-01-15T04:03:29;-5.60;99.90
41882;DHT22;27562;47.524;12.404;2024-01-15T04:05:54;-5.50;99.90
41882;DHT22;27562;47.524;12.404;2024-01-15T04:08:20;-5.50;99.90
41882;DHT22;27562;47.524;12.404;2024-01-15T04:10:46;-5.50;99.90
41882;DHT22;27562;47.524;12.404;2024-01-15T04:13:12;-5.50;99.90
41882;DHT22;27562;47.524;12.404;2024-01-15T04:15:37;-5.50;99.90
41882;DHT22;27562;47.524;12.404;2024-01-15T04:18:03;-5.50;99.90
41882;DHT22;27562;47.524;12.404;2024-01-15T04:20:29;-5.50;99.90
41882;DHT22;27562;47.524;12.404;2024-01-15T04:22:55;-5.50;99.90
41882;DHT22;27562;47.524;12.404;2024-01-15T04:25:20;-5.50;99.90
41882;DHT22;27562;47.524;12.404;2024-01-15T04:27:46;-5.40;99.90
41882;DHT22;27562;47.524;12.404;2024-01-15T04:30:12;-5.40;99.90
41882;DHT22;27562;47.524;12.404;2024-01-15T04:32:38;-5.40;99.90
41882;DHT22;27562;47.524;12.404;2024-01-15T04:35:04;-5.40;99.90
41882;DHT22;27562;47.524;12.404;2024-01-15T04:37:30;-5.40;99.90
41882;DHT22;27562;47.524;12.404;2024-01-15T04:39:55;-5.30;99.90
41882;DHT22;27562;47.524;12.404;2024-01-15T04:42:23;-5.30;99.90
41882;DHT22;27562;47.524;12.404;2024-01-15T04:44:49;-5.30;99.90
41882;DHT22;27562;47.524;12.404;2024-01-15T04:47:15;-5.30;99.90
41882;DHT22;27562;47.524;12.404;2024-01-15T04:49:40;-5.30;99.90
41882;DHT22;27562;47.524;12.404;2024-01-15T04:52:06;-5.20;99.90
41882;DHT22;27562;47.524;12.404;2024-01-15T04:54:32;-5.20;99.90
41882;DHT22;27562;47.524;12.404;2024-01-15T04:56:58;-5.20;99.90
41882;DHT22;27562;47.524;12.404;2024-01-15T04:59:23;-5.20;99.90
41882;DHT22;27562;47.524;12.404;2024-01-15T05:01:49;-5.10;99.90
41882;DHT22;27562;47.524;12.404;2024-01-15T05:04:15;-5.10;99.90
41882;DHT22;27562;47.524;12.404;2024-01-15T05:06:40;-5.10;99.90
41882;DHT22;27562;47.524;12.404;2024-01-15T05:09:07;-5.10;99.90
41882;DHT22;27562;47.524;12.404;2024-01-15T05:11:32;-5.10;99.90
41882;DHT22;27562;47.524;12.404;2024-01-15T05:13:58;-5.10;99.90
41882;DHT22;27562;47.524;12.404;2024-01-15T05:16:24;-5.10;99.90
41882;DHT22;27562;47.524;12.404;2024-01-15T05:18:49;-5.00;99.90
41882;DHT22;27562;47.524;12.404;2024-01-15T05:21:16;-5.00;99.90
41882;DHT22;27562;47.524;12.404;2024-01-15T05:23:41;-5.00;99.90
41882;DHT22;27562;47.524;12.404;2024-01-15T05:26:07;-5.00;99.90
41882;DHT22;27562;47.524;12.404;2024-01-15T05:28:34;-4.90;99.90
41882;DHT22;27562;47.524;12.404;2024-01-15T05:31:00;-4.90;99.90
41882;DHT22;27562;47.524;12.404;2024-01-15T05:33:26;-4.90;99.90
41882;DHT22;27562;47.524;12.404;2024-01-15T05:35:52;-4.90;99.90
41882;DHT22;27562;47.524;12.404;2024-01-15T05:38:18;-4.90;99.90
41882;DHT22;27562;47.524;12.404;2024-01-15T05:40:44;-4.90;99.90
41882;DHT22;27562;47.524;12.404;2024-01-15T05:43:10;-4.90;99.90
41882;DHT22;27562;47.524;12.404;2024-01-15T05:45:37;-4.90;99.90
41882;DHT22;27562;47.524;12.404;2024-01-15T05:48:03;-4.90;99.90
41882;DHT22;27562;47.524;12.404;2024-01-15T05:50:29;-4.90;99.90
41882;DHT22;27562;47.524;12.404;2024-01-15T05:52:55;-4.90;99.90
41882;DHT22;27562;47.524;12.404;2024-01-15T05:55:20;-4.90;99.90
41882;DHT22;27562;47.524;12.404;2024-01-15T05:57:46;-4.80;99.90
41882;DHT22;27562;47.524;12.404;2024-01-15T06:00:12;-4.80;99.90
41882;DHT22;27562;47.524;12.404;2024-01-15T06:02:38;-4.70;99.90
41882;DHT22;27562;47.524;12.404;2024-01-15T06:05:05;-4.70;99.90
41882;DHT22;27562;47.524;12.404;2024-01-15T06:07:31;-4.70;99.90
41882;DHT22;27562;47.524;12.404;2024-01-15T06:09:57;-4.60;99.90
41882;DHT22;27562;47.524;12.404;2024-01-15T06:12:23;-4.60;99.90
41882;DHT22;27562;47.524;12.404;2024-01-15T06:14:48;-4.50;99.90
41882;DHT22;27562;47.524;12.404;2024-01-15T06:17:14;-4.50;99.90
41882;DHT22;27562;47.524;12.404;2024-01-15T06:19:40;-4.40;99.90
41882;DHT22;27562;47.524;12.404;2024-01-15T06:22:05;-4.40;99.90
41882;DHT22;27562;47.524;12.404;2024-01-15T06:24:31;-4.30;99.90
41882;DHT22;27562;47.524;12.404;2024-01-15T06:26:57;-4.30;99.90
41882;DHT22;27562;47.524;12.404;2024-01-15T06:29:25;-4.30;99.90
41882;DHT22;27562;47.524;12.404;2024-01-15T06:31:51;-4.30;99.90
41882;DHT22;27562;47.524;12.404;2024-01-15T06:34:17;-4.20;99.90
41882;DHT22;27562;47.524;12.404;2024-01-15T06:36:43;-4.20;99.90
41882;DHT22;27562;47.524;12.404;2024-01-15T06:39:08;-4.20;99.90
41882;DHT22;27562;47.524;12.404;2024-01-15T06:41:35;-4.10;99.90
41882;DHT22;27562;47.524;12.404;2024-01-15T06:44:06;-4.10;99.90
41882;DHT22;27562;47.524;12.404;2024-01-15T06:46:32;-4.00;99.90
41882;DHT22;27562;47.524;12.404;2024-01-15T06:48:58;-3.90;99.90
41882;DHT22;27562;47.524;12.404;2024-01-15T06:51:23;-3.90;99.90
41882;DHT22;27562;47.524;12.404;2024-01-15T06:53:49;-3.80;99.90
41882;DHT22;27562;47.524;12.404;2024-01-15T06:56:14;-3.80;99.90
41882;DHT22;27562;47.524;12.404;2024-01-15T06:58:40;-3.80;99.90
41882;DHT22;27562;47.524;12.404;2024-01-15T07:01:06;-3.80;99.90
41882;DHT22;27562;47.524;12.404;2024-01-15T07:03:33;-3.80;99.90
41882;DHT22;27562;47.524;12.404;2024-01-15T07:05:58;-3.70;99.90
41882;DHT22;27562;47.524;12.404;2024-01-15T07:08:24;-3.80;99.90
41882;DHT22;27562;47.524;12.404;2024-01-15T07:10:50;-3.70;99.90
41882;DHT22;27562;47.524;12.404;2024-01-15T07:13:15;-3.70;99.90
41882;DHT22;27562;47.524;12.404;2024-01-15T07:15:41;-3.70;99.90
41882;DHT22;27562;47.524;12.404;2024-01-15T07:18:07;-3.70;99.90
41882;DHT22;27562;47.524;12.404;2024-01-15T07:20:32;-3.60;99.90
41882;DHT22;27562;47.524;12.404;2024-01-15T07:22:58;-3.50;99.90
41882;DHT22;27562;47.524;12.404;2024-01-15T07:25:24;-3.50;99.90
41882;DHT22;27562;47.524;12.404;2024-01-15T07:27:51;-3.50;99.90
41882;DHT22;27562;47.524;12.404;2024-01-15T07:30:19;-3.40;99.90
41882;DHT22;27562;47.524;12.404;2024-01-15T07:32:45;-3.40;99.90
41882;DHT22;27562;47.524;12.404;2024-01-15T07:35:10;-3.30;99.90
41882;DHT22;27562;47.524;12.404;2024-01-15T07:37:36;-3.30;99.90
41882;DHT22;27562;47.524;12.404;2024-01-15T07:40:02;-3.20;99.90
41882;DHT22;27562;47.524;12.404;2024-01-15T07:42:29;-3.10;99.90
41882;DHT22;27562;47.524;12.404;2024-01-15T07:44:55;-3.00;99.90
41882;DHT22;27562;47.524;12.404;2024-01-15T07:47:21;-2.90;99.90
41882;DHT22;27562;47.524;12.404;2024-01-15T07:49:46;-2.80;99.90
41882;DHT22;27562;47.524;12.404;2024-01-15T07:52:12;-2.70;99.90
41882;DHT22;27562;47.524;12.404;2024-01-15T07:54:39;-2.70;99.90
41882;DHT22;27562;47.524;12.404;2024-01-15T07:57:04;-2.60;99.90
41882;DHT22;27562;47.524;12.404;2024-01-15T07:59:30;-2.60;99.90
41882;DHT22;27562;47.524;12.404;2024-01-15T08:01:57;-2.50;99.90
41882;DHT22;27562;47.524;12.404;2024-01-15T08:04:23;-2.50;99.90
41882;DHT22;27562;47.524;12.404;2024-01-15T08:06:49;-2.40;99.90
41882;DHT22;27562;47.524;12.404;2024-01-15T08:09:14;-2.30;99.90
41882;DHT22;27562;47.524;12.404;2024-01-15T08:11:41;-2.30;99.90
41882;DHT22;27562;47.524;12.404;2024-01-15T08:14:07;-2.30;99.90
41882;DHT22;27562;47.524;12.404;2024-01-15T08:16:33;-2.30;99.90
41882;DHT22;27562;47.524;12.404;2024-01-15T08:18:59;-2.30;99.90
41882;DHT22;27562;47.524;12.404;2024-01-15T08:21:25;-2.20;99.90
41882;DHT22;27562;47.524;12.404;2024-01-15T08:23:50;-2.20;99.90
41882;DHT22;27562;47.524;12.404;2024-01-15T08:26:16;-2.20;99.90
41882;DHT22;27562;47.524;12.404;2024-01-15T08:28:42;-2.10;99.90
41882;DHT22;27562;47.524;12.404;2024-01-15T08:31:07;-2.10;99.90
41882;DHT22;27562;47.524;12.404;2024-01-15T08:33:33;-2.10;99.90
41882;DHT22;27562;47.524;12.404;2024-01-15T08:35:59;-2.20;99.90
41882;DHT22;27562;47.524;12.404;2024-01-15T08:38:24;-2.20;99.90
41882;DHT22;27562;47.524;12.404;2024-01-15T08:40:50;-2.20;99.90
41882;DHT22;27562;47.524;12.404;2024-01-15T08:43:18;-2.30;99.90
41882;DHT22;27562;47.524;12.404;2024-01-15T08:45:44;-2.20;99.90
41882;DHT22;27562;47.524;12.404;2024-01-15T08:48:10;-2.30;99.90
41882;DHT22;27562;47.524;12.404;2024-01-15T08:50:36;-2.20;99.90
41882;DHT22;27562;47.524;12.404;2024-01-15T08:53:01;-2.20;99.90
41882;DHT22;27562;47.524;12.404;2024-01-15T08:55:28;-2.20;99.90
41882;DHT22;27562;47.524;12.404;2024-01-15T08:57:54;-2.20;99.90
41882;DHT22;27562;47.524;12.404;2024-01-15T09:00:19;-2.10;99.90
41882;DHT22;27562;47.524;12.404;2024-01-15T09:02:45;-2.10;99.90
41882;DHT22;27562;47.524;12.404;2024-01-15T09:05:11;-2.10;99.90
41882;DHT22;27562;47.524;12.404;2024-01-15T09:07:37;-2.00;99.90
41882;DHT22;27562;47.524;12.404;2024-01-15T09:10:02;-1.90;99.90
41882;DHT22;27562;47.524;12.404;2024-01-15T09:12:28;-1.90;99.90
41882;DHT22;27562;47.524;12.404;2024-01-15T09:14:54;-1.90;99.90
41882;DHT22;27562;47.524;12.404;2024-01-15T09:17:21;-1.90;99.90
41882;DHT22;27562;47.524;12.404;2024-01-15T09:19:49;-1.80;99.90
41882;DHT22;27562;47.524;12.404;2024-01-15T09:22:15;-1.80;99.90
41882;DHT22;27562;47.524;12.404;2024-01-15T09:24:44;-1.80;99.90
41882;DHT22;27562;47.524;12.404;2024-01-15T09:27:10;-1.80;99.90
41882;DHT22;27562;47.524;12.404;2024-01-15T09:29:36;-1.80;99.90
41882;DHT22;27562;47.524;12.404;2024-01-15T09:32:07;-1.80;99.90
41882;DHT22;27562;47.524;12.404;2024-01-15T09:34:36;-1.70;99.90
41882;DHT22;27562;47.524;12.404;2024-01-15T09:37:02;-1.70;99.90
41882;DHT22;27562;47.524;12.404;2024-01-15T09:39:28;-1.60;99.90
41882;DHT22;27562;47.524;12.404;2024-01-15T09:41:54;-1.60;99.90
41882;DHT22;27562;47.524;12.404;2024-01-15T09:44:21;-1.50;99.90
41882;DHT22;27562;47.524;12.404;2024-01-15T09:46:47;-1.50;99.90
41882;DHT22;27562;47.524;12.404;2024-01-15T09:49:16;-1.40;99.90
41882;DHT22;27562;47.524;12.404;2024-01-15T09:51:43;-1.40;99.90
41882;DHT22;27562;47.524;12.404;2024-01-15T09:54:08;-1.30;99.90
41882;DHT22;27562;47.524;12.404;2024-01-15T09:56:34;-1.20;99.90
41882;DHT22;27562;47.524;12.404;2024-01-15T09:59:01;-1.10;99.90
41882;DHT22;27562;47.524;12.404;2024-01-15T10:01:28;-1.10;99.90
41882;DHT22;27562;47.524;12.404;2024-01-15T10:03:55;-1.00;99.90
41882;DHT22;27562;47.524;12.404;2024-01-15T10:06:22;-0.90;99.90
41882;DHT22;27562;47.524;12.404;2024-01-15T10:08:49;-0.90;99.90
41882;DHT22;27562;47.524;12.404;2024-01-15T10:11:15;-0.90;99.90
41882;DHT22;27562;47.524;12.404;2024-01-15T10:13:43;-0.80;99.90
41882;DHT22;27562;47.524;12.404;2024-01-15T10:16:09;-0.70;99.90
41882;DHT22;27562;47.524;12.404;2024-01-15T10:18:34;-0.70;99.90
41882;DHT22;27562;47.524;12.404;2024-01-15T10:21:03;-0.60;99.90
41882;DHT22;27562;47.524;12.404;2024-01-15T10:23:29;-0.60;99.90
41882;DHT22;27562;47.524;12.404;2024-01-15T10:25:57;-0.60;99.90
41882;DHT22;27562;47.524;12.404;2024-01-15T10:28:26;-0.50;99.90
41882;DHT22;27562;47.524;12.404;2024-01-15T10:30:55;-0.60;99.90
41882;DHT22;27562;47.524;12.404;2024-01-15T10:33:25;-0.60;99.90
41882;DHT22;27562;47.524;12.404;2024-01-15T10:35:53;-0.60;99.90
41882;DHT22;27562;47.524;12.404;2024-01-15T10:38:21;-0.60;99.90
41882;DHT22;27562;47.524;12.404;2024-01-15T10:40:50;-0.60;99.90
41882;DHT22;27562;47.524;12.404;2024-01-15T10:43:16;-0.60;99.90
41882;DHT22;27562;47.524;12.404;2024-01-15T10:45:44;-0.70;99.90
41882;DHT22;27562;47.524;12.404;2024-01-15T10:48:10;-0.70;99.90
41882;DHT22;27562;47.524;12.404;2024-01-15T10:50:36;-0.70;99.90
41882;DHT22;27562;47.524;12.404;2024-01-15T10:53:02;-0.70;99.90
41882;DHT22;27562;47.524;12.404;2024-01-15T10:55:29;-0.70;99.90
41882;DHT22;27562;47.524;12.404;2024-01-15T10:57:55;-0.70;99.90
41882;DHT22;27562;47.524;12.404;2024-01-15T11:00:22;-0.70;99.90
41882;DHT22;27562;47.524;12.404;2024-01-15T11:02:47;-0.70;99.90
41882;DHT22;27562;47.524;12.404;2024-01-15T11:05:13;-0.70;99.90
41882;DHT22;27562;47.524;12.404;2024-01-15T11:07:40;-0.70;99.90
41882;DHT22;27562;47.524;12.404;2024-01-15T11:10:07;-0.70;99.90
41882;DHT22;27562;47.524;12.404;2024-01-15T11:12:35;-0.70;99.90
41882;DHT22;27562;47.524;12.404;2024-01-15T11:15:03;-0.70;99.90
41882;DHT22;27562;47.524;12.404;2024-01-15T11:18:11;-0.80;99.90
41882;DHT22;27562;47.524;12.404;2024-01-15T11:20:37;-0.80;99.90
41882;DHT22;27562;47.524;12.404;2024-01-15T11:23:02;-0.80;99.90
41882;DHT22;27562;47.524;12.404;2024-01-15T11:25:34;-0.80;99.90
41882;DHT22;27562;47.524;12.404;2024-01-15T11:28:02;-0.90;99.90
41882;DHT22;27562;47.524;12.404;2024-01-15T11:30:27;-0.90;99.90
41882;DHT22;27562;47.524;12.404;2024-01-15T11:32:53;-0.90;99.90
41882;DHT22;27562;47.524;12.404;2024-01-15T11:35:19;-0.90;99.90
41882;DHT22;27562;47.524;12.404;2024-01-15T11:43:05;-0.90;99.90
41882;DHT22;27562;47.524;12.404;2024-01-15T11:45:31;-0.90;99.90
41882;DHT22;27562;47.524;12.404;2024-01-15T11:48:09;-1.00;99.90
41882;DHT22;27562;47.524;12.404;2024-01-15T11:50:40;-0.90;99.90
41882;DHT22;27562;47.524;12.404;2024-01-15T11:53:17;-1.00;99.90
41882;DHT22;27562;47.524;12.404;2024-01-15T11:55:45;-1.00;99.90
41882;DHT22;27562;47.524;12.404;2024-01-15T11:58:11;-1.00;99.90
41882;DHT22;27562;47.524;12.404;2024-01-15T12:00:44;-0.90;99.90
41882;DHT22;27562;47.524;12.404;2024-01-15T12:03:11;-0.90;99.90
41882;DHT22;27562;47.524;12.404;2024-01-15T12:05:37;-0.90;99.90
41882;DHT22;27562;47.524;12.404;2024-01-15T12:08:04;-0.80;99.90
41882;DHT22;27562;47.524;12.404;2024-01-15T12:10:39;-0.80;99.90
41882;DHT22;27562;47.524;12.404;2024-01-15T12:15:32;-0.70;99.90
41882;DHT22;27562;47.524;12.404;2024-01-15T12:18:00;-0.70;99.90
41882;DHT22;27562;47.524;12.404;2024-01-15T12:20:28;-0.70;99.90
41882;DHT22;27562;47.524;12.404;2024-01-15T12:22:54;-0.60;99.90
41882;DHT22;27562;47.524;12.404;2024-01-15T12:25:24;-0.60;99.90
41882;DHT22;27562;47.524;12.404;2024-01-15T12:27:50;-0.50;99.90
41882;DHT22;27562;47.524;12.404;2024-01-15T12:30:16;-0.50;99.90
41882;DHT22;27562;47.524;12.404;2024-01-15T12:32:43;-0.50;99.90
41882;DHT22;27562;47.524;12.404;2024-01-15T12:35:10;-0.50;99.90
41882;DHT22;27562;47.524;12.404;2024-01-15T12:37:37;-0.40;99.90
41882;DHT22;27562;47.524;12.404;2024-01-15T12:40:04;-0.40;99.90
41882;DHT22;27562;47.524;12.404;2024-01-15T12:42:33;-0.30;99.90
41882;DHT22;27562;47.524;12.404;2024-01-15T12:45:00;-0.30;99.90
41882;DHT22;27562;47.524;12.404;2024-01-15T12:47:25;-0.30;99.90
41882;DHT22;27562;47.524;12.404;2024-01-15T12:49:55;-0.20;99.90
41882;DHT22;27562;47.524;12.404;2024-01-15T12:52:21;-0.10;99.90
41882;DHT22;27562;47.524;12.404;2024-01-15T12:54:48;-0.10;99.90
41882;DHT22;27562;47.524;12.404;2024-01-15T12:57:14;-0.10;99.90
41882;DHT22;27562;47.524;12.404;2024-01-15T12:59:39;-0.10;99.90
41882;DHT22;27562;47.524;12.404;2024-01-15T13:02:05;-0.10;99.90
41882;DHT22;27562;47.524;12.404;2024-01-15T13:04:32;-0.10;99.90
41882;DHT22;27562;47.524;12.404;2024-01-15T13:06:58;-0.10;99.90
41882;DHT22;27562;47.524;12.404;2024-01-15T13:09:23;-0.20;99.90
41882;DHT22;27562;47.524;12.404;2024-01-15T13:11:49;-0.20;99.90
41882;DHT22;27562;47.524;12.404;2024-01-15T13:14:15;-0.30;99.90
41882;DHT22;27562;47.524;12.404;2024-01-15T13:16:41;-0.30;99.90
41882;DHT22;27562;47.524;12.404;2024-01-15T13:19:10;-0.30;99.90
41882;DHT22;27562;47.524;12.404;2024-01-15T13:21:37;-0.40;99.90
41882;DHT22;27562;47.524;12.404;2024-01-15T13:24:03;-0.30;99.90
41882;DHT22;27562;47.524;12.404;2024-01-15T13:26:34;-0.30;99.90
41882;DHT22;27562;47.524;12.404;2024-01-15T13:29:03;-0.30;99.90
41882;DHT22;27562;47.524;12.404;2024-01-15T13:31:30;-0.30;99.90
41882;DHT22;27562;47.524;12.404;2024-01-15T13:33:55;-0.40;99.90
41882;DHT22;27562;47.524;12.404;2024-01-15T13:36:22;-0.50;99.90
41882;DHT22;27562;47.524;12.404;2024-01-15T13:38:52;-0.60;99.90
41882;DHT22;27562;47.524;12.404;2024-01-15T13:41:19;-0.60;99.90
41882;DHT22;27562;47.524;12.404;2024-01-15T13:43:47;-0.60;99.90
41882;DHT22;27562;47.524;12.404;2024-01-15T13:46:13;-0.70;99.90
41882;DHT22;27562;47.524;12.404;2024-01-15T13:48:38;-0.60;99.90
41882;DHT22;27562;47.524;12.404;2024-01-15T13:51:04;-0.60;99.90
41882;DHT22;27562;47.524;12.404;2024-01-15T13:53:30;-0.60;99.90
41882;DHT22;27562;47.524;12.404;2024-01-15T13:55:56;-0.50;99.90
41882;DHT22;27562;47.524;12.404;2024-01-15T13:58:22;-0.50;99.90
41882;DHT22;27562;47.524;12.404;2024-01-15T14:00:47;-0.50;99.90
41882;DHT22;27562;47.524;12.404;2024-01-15T14:03:14;-0.50;99.90
41882;DHT22;27562;47.524;12.404;2024-01-15T14:05:40;-0.50;99.90
41882;DHT22;27562;47.524;12.404;2024-01-15T14:08:06;-0.40;99.90
41882;DHT22;27562;47.524;12.404;2024-01-15T14:10:31;-0.40;99.90
41882;DHT22;27562;47.524;12.404;2024-01-15T14:12:58;-0.40;99.90
41882;DHT22;27562;47.524;12.404;2024-01-15T14:15:23;-0.40;99.90
41882;DHT22;27562;47.524;12.404;2024-01-15T14:17:49;-0.40;99.90
41882;DHT22;27562;47.524;12.404;2024-01-15T14:20:15;-0.40;99.90
41882;DHT22;27562;47.524;12.404;2024-01-15T14:22:41;-0.40;99.90
41882;DHT22;27562;47.524;12.404;2024-01-15T14:25:07;-0.40;99.90
41882;DHT22;27562;47.524;12.404;2024-01-15T14:27:33;-0.40;99.90
41882;DHT22;27562;47.524;12.404;2024-01-15T14:29:59;-0.50;99.90
41882;DHT22;27562;47.524;12.404;2024-01-15T14:32:24;-0.60;99.90
41882;DHT22;27562;47.524;12.404;2024-01-15T14:34:50;-0.60;99.90
41882;DHT22;27562;47.524;12.404;2024-01-15T14:37:16;-0.60;99.90
41882;DHT22;27562;47.524;12.404;2024-01-15T14:39:41;-0.60;99.90
41882;DHT22;27562;47.524;12.404;2024-01-15T14:42:07;-0.70;99.90
41882;DHT22;27562;47.524;12.404;2024-01-15T14:44:32;-0.70;99.90
41882;DHT22;27562;47.524;12.404;2024-01-15T14:47:00;-0.80;99.90
41882;DHT22;27562;47.524;12.404;2024-01-15T14:49:26;-0.80;99.90
41882;DHT22;27562;47.524;12.404;2024-01-15T14:51:51;-0.80;99.90
41882;DHT22;27562;47.524;12.404;2024-01-15T14:54:17;-0.80;99.90
41882;DHT22;27562;47.524;12.404;2024-01-15T14:56:43;-0.80;99.90
41882;DHT22;27562;47.524;12.404;2024-01-15T14:59:08;-0.80;99.90
41882;DHT22;27562;47.524;12.404;2024-01-15T15:01:34;-0.80;99.90
41882;DHT22;27562;47.524;12.404;2024-01-15T15:04:00;-0.80;99.90
41882;DHT22;27562;47.524;12.404;2024-01-15T15:06:26;-0.80;99.90
41882;DHT22;27562;47.524;12.404;2024-01-15T15:08:53;-0.80;99.90
41882;DHT22;27562;47.524;12.404;2024-01-15T15:11:26;-0.80;99.90
41882;DHT22;27562;47.524;12.404;2024-01-15T15:13:52;-0.70;99.90
41882;DHT22;27562;47.524;12.404;2024-01-15T15:16:18;-0.70;99.90
41882;DHT22;27562;47.524;12.404;2024-01-15T15:18:43;-0.70;99.90